createdAt,value
2018-10-02T00:01:38.118Z,100584.42
2018-10-02T00:04:07.182Z,100581.98
2018-10-02T00:06:36.066Z,100571.73
2018-10-02T00:09:06.953Z,100575.32
2018-10-02T00:11:41.004Z,100578.41
2018-10-02T00:14:15.249Z,100572.89
2018-10-02T00:16:44.376Z,100578.16
2018-10-02T00:19:13.129Z,100579.63
2018-10-02T00:21:41.967Z,100571.84
2018-10-02T00:24:10.709Z,100574.56
2018-10-02T00:26:39.601Z,100572.69
2018-10-02T00:29:08.475Z,100578.50
2018-10-02T00:31:37.410Z,100568.25
2018-10-02T00:34:06.195Z,100573.34
2018-10-02T00:36:35.052Z,100572.03
2018-10-02T00:39:04.418Z,100579.42
2018-10-02T00:41:33.270Z,100577.36
2018-10-02T00:44:02.094Z,100574.72
2018-10-02T00:46:31.038Z,100581.48
2018-10-02T00:48:59.849Z,100580.27
2018-10-02T00:51:28.689Z,100587.97
2018-10-02T00:53:57.526Z,100588.47
2018-10-02T00:56:26.277Z,100590.80
2018-10-02T00:58:55.456Z,100584.47
2018-10-02T01:01:24.229Z,100586.28
2018-10-02T01:03:53.162Z,100583.90
2018-10-02T01:06:22.043Z,100575.91
2018-10-02T01:08:50.897Z,100581.01
2018-10-02T01:11:19.714Z,100583.70
2018-10-02T01:13:48.562Z,100584.75
2018-10-02T01:16:17.338Z,100587.28
2018-10-02T01:18:46.341Z,100577.16
2018-10-02T01:21:15.111Z,100583.34
2018-10-02T01:23:44.014Z,100576.41
2018-10-02T01:26:12.762Z,100574.70
2018-10-02T01:28:41.639Z,100584.66
2018-10-02T01:31:10.440Z,100585.42
2018-10-02T01:33:39.234Z,100579.05
2018-10-02T01:36:08.610Z,100579.41
2018-10-02T01:38:37.469Z,100585.53
2018-10-02T01:41:06.437Z,100574.91
2018-10-02T01:43:35.206Z,100583.47
2018-10-02T01:46:04.466Z,100583.11
2018-10-02T01:48:33.394Z,100582.45
2018-10-02T01:51:02.182Z,100582.45
2018-10-02T01:53:30.973Z,100584.69
2018-10-02T01:55:59.854Z,100585.64
2018-10-02T01:58:29.020Z,100585.19
2018-10-02T02:00:57.881Z,100587.16
2018-10-02T02:03:27.420Z,100587.31
2018-10-02T02:05:56.289Z,100590.70
2018-10-02T02:08:25.094Z,100590.80
2018-10-02T02:10:54.199Z,100591.83
2018-10-02T02:13:23.026Z,100590.35
2018-10-02T02:15:51.767Z,100596.92
2018-10-02T02:18:20.578Z,100599.92
2018-10-02T02:20:49.402Z,100599.06
2018-10-02T02:23:18.192Z,100601.98
2018-10-02T02:25:47.099Z,100606.50
2018-10-02T02:28:15.914Z,100606.70
2018-10-02T02:30:44.743Z,100604.72
2018-10-02T02:33:13.626Z,100607.81
2018-10-02T02:35:42.502Z,100615.15
2018-10-02T02:38:11.302Z,100607.25
2018-10-02T02:40:40.496Z,100613.73
2018-10-02T02:43:09.202Z,100606.70
2018-10-02T02:45:38.118Z,100617.02
2018-10-02T02:48:12.026Z,100613.83
2018-10-02T02:50:50.841Z,100612.31
2018-10-02T02:53:23.282Z,100607.65
2018-10-02T02:55:52.749Z,100599.92
2018-10-02T02:58:22.447Z,100604.42
2018-10-02T03:00:51.343Z,100603.70
2018-10-02T03:03:20.307Z,100600.88
2018-10-02T03:05:49.109Z,100600.58
2018-10-02T03:08:17.966Z,100602.38
2018-10-02T03:10:47.086Z,100597.88
2018-10-02T03:13:15.934Z,100597.58
2018-10-02T03:15:44.815Z,100594.56
2018-10-02T03:18:13.893Z,100597.69
2018-10-02T03:20:42.702Z,100595.80
2018-10-02T03:23:12.217Z,100598.70
2018-10-02T03:25:41.088Z,100603.86
2018-10-02T03:28:09.853Z,100606.13
2018-10-02T03:30:38.650Z,100605.58
2018-10-02T03:33:08.054Z,100600.31
2018-10-02T03:35:36.871Z,100576.91
2018-10-02T03:38:05.795Z,100601.07
2018-10-02T03:40:34.539Z,100589.23
2018-10-02T03:43:03.317Z,100591.77
2018-10-02T03:45:32.122Z,100592.03
2018-10-02T03:48:00.845Z,100592.23
2018-10-02T03:50:29.707Z,100596.53
2018-10-02T03:52:58.433Z,100591.27
2018-10-02T03:55:27.286Z,100590.16
2018-10-02T03:57:56.031Z,100589.23
2018-10-02T04:00:24.970Z,100594.76
2018-10-02T04:02:53.843Z,100589.95
2018-10-02T04:05:22.822Z,100597.48
2018-10-02T04:07:51.631Z,100592.62
2018-10-02T04:10:20.391Z,100593.92
2018-10-02T04:12:49.312Z,100588.55
2018-10-02T04:15:18.110Z,100590.88
2018-10-02T04:17:46.941Z,100598.20
2018-10-02T04:20:16.006Z,100602.91
2018-10-02T04:22:44.794Z,100601.80
2018-10-02T04:25:13.501Z,100603.67
2018-10-02T04:27:42.382Z,100613.89
2018-10-02T04:30:11.161Z,100608.07
2018-10-02T04:32:40.010Z,100613.61
2018-10-02T04:35:09.140Z,100618.57
2018-10-02T04:37:38.388Z,100613.50
2018-10-02T04:40:07.218Z,100614.70
2018-10-02T04:42:36.161Z,100623.31
2018-10-02T04:45:05.076Z,100623.13
2018-10-02T04:47:34.239Z,100616.37
2018-10-02T04:50:03.158Z,100625.58
2018-10-02T04:52:31.941Z,100623.20
2018-10-02T04:55:00.786Z,100616.53
2018-10-02T04:57:29.575Z,100617.30
2018-10-02T04:59:58.374Z,100620.66
2018-10-02T05:02:27.344Z,100618.98
2018-10-02T05:04:56.068Z,100619.74
2018-10-02T05:07:24.922Z,100623.17
2018-10-02T05:09:53.794Z,100622.23
2018-10-02T05:12:24.520Z,100629.13
2018-10-02T05:14:54.292Z,100631.05
2018-10-02T05:17:23.395Z,100637.07
2018-10-02T05:19:52.282Z,100629.47
2018-10-02T05:22:21.336Z,100631.02
2018-10-02T05:24:50.054Z,100614.83
2018-10-02T05:27:19.124Z,100628.90
2018-10-02T05:29:48.021Z,100646.69
2018-10-02T05:32:16.820Z,100640.50
2018-10-02T05:34:45.678Z,100635.24
2018-10-02T05:37:15.265Z,100632.75
2018-10-02T05:39:44.172Z,100638.22
2018-10-02T05:42:12.958Z,100640.75
2018-10-02T05:44:43.583Z,100645.44
2018-10-02T05:47:12.425Z,100642.08
2018-10-02T05:49:43.166Z,100656.50
2018-10-02T05:52:12.062Z,100650.12
2018-10-02T05:54:41.074Z,100647.30
2018-10-02T05:57:09.973Z,100644.47
2018-10-02T05:59:38.911Z,100641.05
2018-10-02T06:02:07.950Z,100641.30
2018-10-02T06:04:36.959Z,100637.84
2018-10-02T06:07:06.035Z,100632.87
2018-10-02T06:09:34.891Z,100634.75
2018-10-02T06:12:03.943Z,100634.63
2018-10-02T06:14:33.342Z,100633.52
2018-10-02T06:17:02.203Z,100634.96
2018-10-02T06:19:31.049Z,100633.35
2018-10-02T06:21:59.904Z,100640.03
2018-10-02T06:24:29.134Z,100640.58
2018-10-02T06:26:58.502Z,100641.64
2018-10-02T06:29:27.452Z,100644.49
2018-10-02T06:31:56.299Z,100632.11
2018-10-02T06:34:25.068Z,100635.88
2018-10-02T06:36:57.219Z,100647.14
2018-10-02T06:39:27.000Z,100634.09
2018-10-02T06:41:55.969Z,100639.55
2018-10-02T06:44:24.832Z,100638.45
2018-10-02T06:46:53.794Z,100645.03
2018-10-02T06:49:22.689Z,100646.80
2018-10-02T06:51:51.686Z,100649.44
2018-10-02T06:54:20.697Z,100654.81
2018-10-02T06:56:50.029Z,100651.97
2018-10-02T06:59:18.936Z,100655.77
2018-10-02T07:01:47.970Z,100656.12
2018-10-02T07:04:16.941Z,100651.33
2018-10-02T07:06:50.772Z,100654.93
2018-10-02T07:09:20.046Z,100651.05
2018-10-02T07:11:48.992Z,100645.78
2018-10-02T07:14:18.214Z,100639.52
2018-10-02T07:16:49.692Z,100648.24
2018-10-02T07:19:19.191Z,100647.31
2018-10-02T07:21:50.336Z,100647.27
2018-10-02T07:24:20.279Z,100642.89
2018-10-02T07:26:49.449Z,100648.12
2018-10-02T07:29:18.167Z,100648.21
2018-10-02T07:31:49.411Z,100648.16
2018-10-02T07:34:18.254Z,100644.63
2018-10-02T07:36:47.136Z,100637.45
2018-10-02T07:39:16.040Z,100640.27
2018-10-02T07:41:44.878Z,100636.55
2018-10-02T07:44:14.000Z,100630.70
2018-10-02T07:46:43.544Z,100635.23
2018-10-02T07:49:12.842Z,100631.72
2018-10-02T07:54:32.965Z,100631.11
2018-10-02T07:57:02.425Z,100638.82
2018-10-02T07:59:31.776Z,100629.75
2018-10-02T08:02:01.685Z,100629.69
2018-10-02T08:04:31.252Z,100629.97
2018-10-02T08:07:01.196Z,100617.81
2018-10-02T08:09:30.244Z,100623.91
2018-10-02T08:11:59.203Z,100629.12
2018-10-02T08:14:28.327Z,100622.63
2018-10-02T08:16:57.351Z,100621.60
2018-10-02T08:19:26.899Z,100619.13
2018-10-02T08:21:56.663Z,100602.73
2018-10-02T08:24:25.585Z,100610.59
2018-10-02T08:26:54.465Z,100596.52
2018-10-02T08:29:23.379Z,100599.67
2018-10-02T08:31:53.146Z,100596.37
2018-10-02T08:34:22.479Z,100579.55
2018-10-02T08:36:51.291Z,100587.88
2018-10-02T08:39:20.638Z,100586.30
2018-10-02T08:41:49.773Z,100587.80
2018-10-02T08:44:18.850Z,100577.59
2018-10-02T08:46:48.084Z,100589.55
2018-10-02T08:49:17.436Z,100586.42
2018-10-02T08:51:46.637Z,100575.48
2018-10-02T08:54:15.462Z,100570.40
2018-10-02T08:56:44.394Z,100566.77
2018-10-02T08:59:13.251Z,100580.52
2018-10-02T09:01:42.151Z,100570.02
2018-10-02T09:04:11.039Z,100575.75
2018-10-02T09:06:40.045Z,100566.63
2018-10-02T09:09:12.097Z,100546.12
2018-10-02T09:11:42.214Z,100542.69
2018-10-02T09:14:11.220Z,100546.28
2018-10-02T09:16:40.373Z,100544.05
2018-10-02T09:19:09.572Z,100543.17
2018-10-02T09:21:39.033Z,100531.28
2018-10-02T09:24:08.353Z,100531.30
2018-10-02T09:26:37.425Z,100535.83
2018-10-02T09:29:06.473Z,100542.28
2018-10-02T09:31:40.512Z,100543.13
2018-10-02T09:34:14.811Z,100531.38
2018-10-02T09:36:48.848Z,100538.20
2018-10-02T09:39:23.136Z,100527.16
2018-10-02T09:41:57.284Z,100520.38
2018-10-02T09:44:26.502Z,100520.00
2018-10-02T09:46:55.862Z,100517.80
2018-10-02T09:49:25.064Z,100525.74
2018-10-02T09:51:54.497Z,100526.67
2018-10-02T09:54:23.584Z,100507.19
2018-10-02T09:56:52.697Z,100528.30
2018-10-02T09:59:21.873Z,100517.31
2018-10-02T10:01:56.785Z,100533.67
2018-10-02T10:04:27.266Z,100531.63
2018-10-02T10:06:56.012Z,100528.98
2018-10-02T10:09:24.930Z,100518.27
2018-10-02T10:11:54.103Z,100505.61
2018-10-02T10:14:23.833Z,100524.66
2018-10-02T10:16:55.313Z,100530.94
2018-10-02T10:19:24.176Z,100511.80
2018-10-02T10:21:53.042Z,100523.30
2018-10-02T10:24:22.491Z,100522.94
2018-10-02T10:26:51.504Z,100523.74
2018-10-02T10:29:20.429Z,100527.12
2018-10-02T10:31:49.644Z,100526.36
2018-10-02T10:34:18.662Z,100519.06
2018-10-02T10:36:48.788Z,100516.59
2018-10-02T10:39:17.820Z,100505.11
2018-10-02T10:41:46.910Z,100520.53
2018-10-02T10:44:15.909Z,100519.02
2018-10-02T10:46:46.535Z,100514.71
2018-10-02T10:49:15.541Z,100506.70
2018-10-02T10:51:45.020Z,100496.27
2018-10-02T10:54:13.962Z,100490.50
2018-10-02T10:56:43.801Z,100493.98
2018-10-02T10:59:12.911Z,100482.66
2018-10-02T11:01:42.506Z,100480.14
2018-10-02T11:04:11.657Z,100475.55
2018-10-02T11:06:41.999Z,100489.39
2018-10-02T11:09:14.046Z,100474.96
2018-10-02T11:11:42.975Z,100468.34
2018-10-02T11:14:11.919Z,100488.55
2018-10-02T11:16:41.687Z,100478.87
2018-10-02T11:19:10.534Z,100482.13
2018-10-02T11:21:39.824Z,100485.45
2018-10-02T11:24:09.069Z,100474.03
2018-10-02T11:26:38.018Z,100480.86
2018-10-02T11:29:07.002Z,100467.66
2018-10-02T11:31:35.768Z,100486.17
2018-10-02T11:34:04.834Z,100469.08
2018-10-02T11:36:33.751Z,100473.98
2018-10-02T11:39:02.610Z,100464.74
2018-10-02T11:41:31.771Z,100451.63
2018-10-02T11:44:00.775Z,100451.97
2018-10-02T11:46:29.488Z,100445.76
2018-10-02T11:48:58.303Z,100439.51
2018-10-02T11:51:27.126Z,100424.89
2018-10-02T11:53:55.960Z,100427.84
2018-10-02T11:56:26.196Z,100417.30
2018-10-02T11:58:55.672Z,100421.59
2018-10-02T12:01:24.852Z,100415.80
2018-10-02T12:03:54.136Z,100409.44
2018-10-02T12:06:23.426Z,100416.75
2018-10-02T12:08:52.344Z,100411.56
2018-10-02T12:11:23.234Z,100404.61
2018-10-02T12:13:55.851Z,100405.55
2018-10-02T12:16:26.715Z,100388.64
2018-10-02T12:18:55.705Z,100379.80
2018-10-02T12:21:25.601Z,100385.41
2018-10-02T12:23:54.997Z,100380.91
2018-10-02T12:26:24.163Z,100363.05
2018-10-02T12:28:54.555Z,100373.64
2018-10-02T12:31:24.820Z,100367.65
2018-10-02T12:33:54.397Z,100378.55
2018-10-02T12:36:23.142Z,100364.15
2018-10-02T12:38:52.143Z,100362.93
2018-10-02T12:41:23.555Z,100347.12
2018-10-02T12:43:54.529Z,100347.22
2018-10-02T12:46:23.802Z,100333.38
2018-10-02T12:48:52.764Z,100339.91
2018-10-02T12:51:21.836Z,100332.36
2018-10-02T12:53:50.683Z,100319.50
2018-10-02T12:56:19.981Z,100312.76
2018-10-02T13:02:11.660Z,100310.23
2018-10-02T13:04:40.640Z,100299.55
2018-10-02T13:07:10.024Z,100304.10
2018-10-02T13:09:40.368Z,100279.73
2018-10-02T13:12:10.105Z,100282.00
2018-10-02T13:14:39.225Z,100286.33
2018-10-02T13:17:08.836Z,100278.06
2018-10-02T13:19:38.452Z,100267.95
2018-10-02T13:22:07.670Z,100274.92
2018-10-02T13:24:37.244Z,100259.66
2018-10-02T13:27:06.964Z,100276.62
2018-10-02T13:29:36.617Z,100262.56
2018-10-02T13:32:05.807Z,100263.40
2018-10-02T13:34:35.262Z,100252.10
2018-10-02T13:37:05.074Z,100239.12
2018-10-02T13:39:34.289Z,100256.56
2018-10-02T13:42:03.994Z,100237.34
2018-10-02T13:44:33.235Z,100252.35
2018-10-02T13:47:02.699Z,100238.13
2018-10-02T13:49:32.592Z,100233.89
2018-10-02T13:52:01.535Z,100237.61
2018-10-02T13:54:31.580Z,100228.23
2018-10-02T13:57:00.751Z,100236.73
2018-10-02T13:59:30.137Z,100237.55
2018-10-02T14:01:59.493Z,100237.42
2018-10-02T14:04:29.546Z,100232.59
2018-10-02T14:06:58.928Z,100228.63
2018-10-02T14:09:28.448Z,100217.73
2018-10-02T14:11:58.369Z,100217.98
2018-10-02T14:14:27.738Z,100219.09
2018-10-02T14:16:57.444Z,100220.17
2018-10-02T14:19:27.180Z,100211.38
2018-10-02T14:21:56.543Z,100202.14
2018-10-02T14:24:25.666Z,100182.49
2018-10-02T14:26:54.960Z,100189.58
2018-10-02T14:29:25.648Z,100185.52
2018-10-02T14:31:54.954Z,100178.55
2018-10-02T14:34:24.131Z,100185.17
2018-10-02T14:36:54.060Z,100169.31
2018-10-02T14:39:23.559Z,100167.53
2018-10-02T14:41:52.687Z,100180.01
2018-10-02T14:44:22.947Z,100191.66
2018-10-02T14:46:52.660Z,100173.16
2018-10-02T14:49:21.926Z,100176.06
2018-10-02T14:51:51.264Z,100177.24
2018-10-02T14:54:21.631Z,100174.64
2018-10-02T14:56:51.138Z,100169.23
2018-10-02T14:59:20.718Z,100158.03
2018-10-02T15:01:50.003Z,100161.52
2018-10-02T15:04:19.368Z,100165.02
2018-10-02T15:06:49.481Z,100163.14
2018-10-02T15:09:18.835Z,100153.64
2018-10-02T15:11:48.147Z,100141.16
2018-10-02T15:14:17.439Z,100147.25
2018-10-02T15:16:46.761Z,100141.03
2018-10-02T15:19:18.524Z,100136.89
2018-10-02T15:21:47.776Z,100141.50
2018-10-02T15:24:18.941Z,100126.70
2018-10-02T15:26:48.094Z,100129.23
2018-10-02T15:29:17.095Z,100102.80
2018-10-02T15:31:46.311Z,100106.77
2018-10-02T15:34:15.901Z,100131.14
2018-10-02T15:36:47.246Z,100125.73
2018-10-02T15:39:16.572Z,100119.96
2018-10-02T15:41:47.114Z,100126.19
2018-10-02T15:44:16.476Z,100114.63
2018-10-02T15:46:45.876Z,100123.55
2018-10-02T15:49:17.001Z,100125.30
2018-10-02T15:51:47.074Z,100125.30
2018-10-02T15:54:17.735Z,100118.23
2018-10-02T15:56:47.542Z,100122.92
2018-10-02T15:59:16.715Z,100117.72
2018-10-02T16:01:45.659Z,100127.43
2018-10-02T16:04:14.755Z,100125.06
2018-10-02T16:06:44.245Z,100127.03
2018-10-02T16:09:13.184Z,100132.79
2018-10-02T16:11:42.221Z,100122.02
2018-10-02T16:14:11.105Z,100129.56
2018-10-02T16:16:40.217Z,100122.22
2018-10-02T16:19:09.100Z,100123.80
2018-10-02T16:21:38.231Z,100117.53
2018-10-02T16:24:07.250Z,100136.77
2018-10-02T16:26:36.200Z,100141.92
2018-10-02T16:29:05.197Z,100135.61
2018-10-02T16:31:34.126Z,100129.73
2018-10-02T16:34:03.017Z,100133.10
2018-10-02T16:36:31.994Z,100126.12
2018-10-02T16:39:00.986Z,100132.13
2018-10-02T16:41:29.991Z,100145.44
2018-10-02T16:43:58.836Z,100154.19
2018-10-02T16:46:27.667Z,100144.59
2018-10-02T16:48:56.844Z,100147.45
2018-10-02T16:51:26.368Z,100135.44
2018-10-02T16:53:55.510Z,100134.12
2018-10-02T16:56:24.324Z,100136.89
2018-10-02T16:58:53.339Z,100139.05
2018-10-02T17:01:22.218Z,100143.61
2018-10-02T17:03:51.255Z,100144.46
2018-10-02T17:06:20.429Z,100143.76
2018-10-02T17:08:49.683Z,100131.28
2018-10-02T17:11:18.642Z,100153.27
2018-10-02T17:13:47.682Z,100142.80
2018-10-02T17:16:16.873Z,100151.08
2018-10-02T17:18:45.850Z,100149.28
2018-10-02T17:21:15.093Z,100149.64
2018-10-02T17:23:43.847Z,100145.84
2018-10-02T17:26:12.959Z,100142.09
2018-10-02T17:28:42.167Z,100138.98
2018-10-02T17:31:11.207Z,100144.64
2018-10-02T17:33:40.112Z,100156.97
2018-10-02T17:36:13.933Z,100154.58
2018-10-02T17:38:43.008Z,100160.33
2018-10-02T17:41:11.956Z,100159.73
2018-10-02T17:43:40.999Z,100175.12
2018-10-02T17:46:10.470Z,100164.08
2018-10-02T17:48:39.359Z,100160.50
2018-10-02T17:51:08.663Z,100164.93
2018-10-02T17:53:37.607Z,100167.80
2018-10-02T17:56:06.411Z,100174.17
2018-10-02T17:58:35.635Z,100166.47
2018-10-02T18:01:05.761Z,100179.17
2018-10-02T18:03:34.651Z,100173.89
2018-10-02T18:06:03.720Z,100169.23
2018-10-02T18:08:35.168Z,100161.78
2018-10-02T18:11:07.343Z,100163.70
2018-10-02T18:13:36.381Z,100174.86
2018-10-02T18:16:05.231Z,100171.75
2018-10-02T18:18:35.524Z,100173.80
2018-10-02T18:21:04.466Z,100165.16
2018-10-02T18:23:33.743Z,100171.75
2018-10-02T18:26:02.744Z,100183.39
2018-10-02T18:28:32.809Z,100188.08
2018-10-02T18:31:02.576Z,100199.72
2018-10-02T18:33:32.973Z,100198.19
2018-10-02T18:36:02.077Z,100196.14
2018-10-02T18:38:33.485Z,100194.78
2018-10-02T18:41:07.660Z,100194.78
2018-10-02T18:43:37.920Z,100200.79
2018-10-02T18:46:09.188Z,100190.22
2018-10-02T18:48:39.830Z,100187.91
2018-10-02T18:51:09.023Z,100179.84
2018-10-02T18:53:38.186Z,100176.48
2018-10-02T18:56:08.465Z,100176.26
2018-10-02T18:58:38.685Z,100170.58
2018-10-02T19:01:08.792Z,100163.72
2018-10-02T19:03:38.767Z,100168.99
2018-10-02T19:06:13.215Z,100163.70
2018-10-02T19:08:48.983Z,100169.25
2018-10-02T19:11:23.612Z,100156.75
2018-10-02T19:13:58.732Z,100162.13
2018-10-02T19:16:31.702Z,100162.81
2018-10-02T19:19:02.203Z,100175.06
2018-10-02T19:21:32.734Z,100174.59
2018-10-02T19:24:11.636Z,100172.87
2018-10-02T19:26:43.122Z,100170.95
2018-10-02T19:29:14.780Z,100180.47
2018-10-02T19:31:51.875Z,100177.67
2018-10-02T19:34:21.448Z,100170.45
2018-10-02T19:36:56.694Z,100171.98
2018-10-02T19:39:38.883Z,100172.09
2018-10-02T19:42:16.444Z,100165.87
2018-10-02T19:47:33.721Z,100174.27
2018-10-02T19:50:03.382Z,100171.47
2018-10-02T19:52:33.913Z,100175.52
2018-10-02T19:55:05.658Z,100167.58
2018-10-02T19:57:35.811Z,100166.78
2018-10-02T20:00:08.942Z,100168.83
2018-10-02T20:11:47.854Z,100154.66
2018-10-02T20:14:17.281Z,100158.27
2018-10-02T20:16:46.482Z,100167.50
2018-10-02T20:19:16.297Z,100174.70
2018-10-02T20:21:45.663Z,100177.22
2018-10-02T20:24:15.161Z,100178.03
2018-10-02T20:26:44.340Z,100150.75
2018-10-02T20:29:13.197Z,100160.02
2018-10-02T20:31:44.038Z,100176.22
2018-10-02T20:34:13.034Z,100191.06
2018-10-02T20:36:44.710Z,100165.91
2018-10-02T20:39:14.865Z,100178.03
2018-10-02T20:41:44.937Z,100178.88
2018-10-02T20:44:13.951Z,100188.15
2018-10-02T20:46:43.104Z,100192.83
2018-10-02T20:49:12.658Z,100187.28
2018-10-02T20:51:41.571Z,100193.33
2018-10-02T20:54:10.794Z,100196.37
2018-10-02T20:56:43.650Z,100203.91
2018-10-02T20:59:12.860Z,100192.68
2018-10-02T21:01:41.863Z,100187.50
2018-10-02T21:04:13.917Z,100189.15
2018-10-02T21:06:43.254Z,100195.52
2018-10-02T21:09:12.316Z,100173.25
2018-10-02T21:11:45.346Z,100192.38
2018-10-02T21:14:14.283Z,100191.25
2018-10-02T21:16:43.356Z,100172.35
2018-10-02T21:19:12.342Z,100183.87
2018-10-02T21:21:42.137Z,100173.27
2018-10-02T21:24:11.892Z,100173.01
2018-10-02T21:26:42.940Z,100175.05
2018-10-02T21:29:12.069Z,100166.69
2018-10-02T21:31:42.309Z,100167.53
2018-10-02T21:34:12.739Z,100176.66
2018-10-02T21:36:42.047Z,100177.75
2018-10-02T21:39:11.783Z,100177.14
2018-10-02T21:41:44.149Z,100173.55
2018-10-02T21:44:13.586Z,100172.45
2018-10-02T21:46:43.897Z,100163.45
2018-10-02T21:49:13.254Z,100166.47
2018-10-02T21:51:42.264Z,100156.05
2018-10-02T21:54:13.013Z,100162.84
2018-10-02T21:59:49.446Z,100164.94
2018-10-02T22:02:18.800Z,100147.39
2018-10-02T22:04:48.144Z,100156.70
2018-10-02T22:07:16.876Z,100151.94
2018-10-02T22:09:46.840Z,100139.90
2018-10-02T22:12:16.129Z,100144.80
2018-10-02T22:14:47.571Z,100147.07
2018-10-02T22:17:16.971Z,100134.31
2018-10-02T22:19:46.414Z,100138.02
2018-10-02T22:22:15.801Z,100135.77
2018-10-02T22:24:45.603Z,100143.81
2018-10-02T22:27:14.563Z,100144.27
2018-10-02T22:29:46.641Z,100148.58
2018-10-02T22:32:16.373Z,100155.37
2018-10-02T22:34:46.482Z,100161.98
2018-10-02T22:37:15.483Z,100157.44
2018-10-02T22:39:44.375Z,100148.30
2018-10-02T22:42:13.321Z,100156.63
2018-10-02T22:44:44.313Z,100147.42
2018-10-02T22:47:13.096Z,100161.98
2018-10-02T22:49:42.177Z,100164.53
2018-10-02T22:52:11.223Z,100161.98
2018-10-02T22:54:40.123Z,100163.47
2018-10-02T22:57:09.120Z,100151.33
2018-10-02T22:59:38.076Z,100157.66
2018-10-02T23:02:15.236Z,100161.18
2018-10-02T23:04:44.103Z,100154.45
2018-10-02T23:07:12.959Z,100160.23
2018-10-02T23:09:41.803Z,100178.16
2018-10-02T23:12:10.674Z,100164.86
2018-10-02T23:14:39.627Z,100168.23
2018-10-02T23:17:08.484Z,100161.98
2018-10-02T23:19:37.294Z,100171.36
2018-10-02T23:22:06.204Z,100173.31
2018-10-02T23:24:34.952Z,100178.84
2018-10-02T23:27:03.783Z,100190.17
2018-10-02T23:29:32.521Z,100192.68
2018-10-02T23:32:01.333Z,100183.53
2018-10-02T23:34:30.167Z,100180.05
2018-10-02T23:36:58.975Z,100202.86
2018-10-02T23:39:27.791Z,100200.59
2018-10-02T23:41:56.616Z,100196.23
2018-10-02T23:44:25.426Z,100202.98
2018-10-02T23:46:54.273Z,100196.37
2018-10-02T23:49:23.127Z,100213.69
2018-10-02T23:51:51.955Z,100198.39
2018-10-02T23:54:20.819Z,100204.01
2018-10-02T23:56:49.618Z,100211.66
2018-10-02T23:59:18.763Z,100217.83
